Terminal Aerodrome Forecast
Issued by NWS Northern Indiana

Home | Current Version | Previous Version | Graphics & Text | Print | Product List | Glossary On
Versions: 1 2 3 4 5 6 7 8 9 10 11 12
000
FTUS43 KIWX 191120
TAFFWA
TAF
KFWA 191120Z 1912/2012 28012KT P6SM OVC035
     FM191700 28015G22KT P6SM BKN050
     FM200000 26008KT P6SM SCT100=

USA.gov is the U.S. government's official web portal to all federal, state and local government web resources and services.